sensor_id;sensor_type;location;lat;lon;timestamp;P1;durP1;ratioP1;P2;durP2;ratioP2
59189;SDS011;50749;51.636;4.948;2023-06-22T00:02:18;2.38;;;1.40;;
59189;SDS011;50749;51.636;4.948;2023-06-22T00:04:44;1.63;;;1.05;;
59189;SDS011;50749;51.636;4.948;2023-06-22T00:07:10;3.05;;;1.20;;
59189;SDS011;50749;51.636;4.948;2023-06-22T00:09:36;2.58;;;1.38;;
59189;SDS011;50749;51.636;4.948;2023-06-22T00:12:01;2.88;;;1.40;;
59189;SDS011;50749;51.636;4.948;2023-06-22T00:14:28;2.85;;;1.25;;
59189;SDS011;50749;51.636;4.948;2023-06-22T00:16:53;3.20;;;1.23;;
59189;SDS011;50749;51.636;4.948;2023-06-22T00:19:22;2.00;;;1.25;;
59189;SDS011;50749;51.636;4.948;2023-06-22T00:21:48;1.90;;;1.20;;
59189;SDS011;50749;51.636;4.948;2023-06-22T00:24:21;2.15;;;1.40;;
59189;SDS011;50749;51.636;4.948;2023-06-22T00:26:50;3.10;;;1.13;;
59189;SDS011;50749;51.636;4.948;2023-06-22T00:29:16;2.65;;;1.30;;
59189;SDS011;50749;51.636;4.948;2023-06-22T00:31:42;2.45;;;1.20;;
59189;SDS011;50749;51.636;4.948;2023-06-22T00:34:08;4.10;;;1.50;;
59189;SDS011;50749;51.636;4.948;2023-06-22T00:36:34;1.92;;;1.38;;
59189;SDS011;50749;51.636;4.948;2023-06-22T00:39:00;1.77;;;1.30;;
59189;SDS011;50749;51.636;4.948;2023-06-22T00:41:26;1.70;;;1.17;;
59189;SDS011;50749;51.636;4.948;2023-06-22T00:43:54;2.45;;;1.20;;
59189;SDS011;50749;51.636;4.948;2023-06-22T00:46:20;1.88;;;1.20;;
59189;SDS011;50749;51.636;4.948;2023-06-22T00:48:48;2.90;;;1.40;;
59189;SDS011;50749;51.636;4.948;2023-06-22T00:51:14;3.05;;;1.30;;
59189;SDS011;50749;51.636;4.948;2023-06-22T00:53:40;2.20;;;1.30;;
59189;SDS011;50749;51.636;4.948;2023-06-22T00:56:08;3.67;;;1.45;;
59189;SDS011;50749;51.636;4.948;2023-06-22T00:58:35;2.03;;;1.30;;
59189;SDS011;50749;51.636;4.948;2023-06-22T01:01:01;3.03;;;1.45;;
59189;SDS011;50749;51.636;4.948;2023-06-22T01:03:27;2.25;;;1.02;;
59189;SDS011;50749;51.636;4.948;2023-06-22T01:05:54;2.67;;;1.20;;
59189;SDS011;50749;51.636;4.948;2023-06-22T01:08:39;2.75;;;2.03;;
59189;SDS011;50749;51.636;4.948;2023-06-22T01:11:13;2.63;;;1.65;;
59189;SDS011;50749;51.636;4.948;2023-06-22T01:13:49;2.30;;;1.45;;
59189;SDS011;50749;51.636;4.948;2023-06-22T01:16:27;2.05;;;1.23;;
59189;SDS011;50749;51.636;4.948;2023-06-22T01:18:55;2.50;;;1.60;;
59189;SDS011;50749;51.636;4.948;2023-06-22T01:21:25;1.73;;;1.20;;
59189;SDS011;50749;51.636;4.948;2023-06-22T01:29:26;2.17;;;1.33;;
59189;SDS011;50749;51.636;4.948;2023-06-22T01:31:54;3.45;;;1.15;;
59189;SDS011;50749;51.636;4.948;2023-06-22T01:34:22;1.77;;;1.13;;
59189;SDS011;50749;51.636;4.948;2023-06-22T01:36:49;2.50;;;1.45;;
59189;SDS011;50749;51.636;4.948;2023-06-22T01:39:17;2.30;;;1.48;;
59189;SDS011;50749;51.636;4.948;2023-06-22T01:41:43;2.83;;;1.70;;
59189;SDS011;50749;51.636;4.948;2023-06-22T01:44:10;2.00;;;1.50;;
59189;SDS011;50749;51.636;4.948;2023-06-22T01:46:36;1.92;;;1.67;;
59189;SDS011;50749;51.636;4.948;2023-06-22T01:49:03;2.63;;;1.45;;
59189;SDS011;50749;51.636;4.948;2023-06-22T01:51:30;2.67;;;1.40;;
59189;SDS011;50749;51.636;4.948;2023-06-22T01:53:56;2.05;;;1.30;;
59189;SDS011;50749;51.636;4.948;2023-06-22T01:56:22;2.15;;;1.42;;
59189;SDS011;50749;51.636;4.948;2023-06-22T01:58:50;2.20;;;1.25;;
59189;SDS011;50749;51.636;4.948;2023-06-22T02:01:24;2.50;;;1.45;;
59189;SDS011;50749;51.636;4.948;2023-06-22T02:04:01;2.40;;;1.50;;
59189;SDS011;50749;51.636;4.948;2023-06-22T02:06:35;2.40;;;1.52;;
59189;SDS011;50749;51.636;4.948;2023-06-22T02:09:11;2.15;;;1.50;;
59189;SDS011;50749;51.636;4.948;2023-06-22T02:11:40;2.20;;;1.40;;
59189;SDS011;50749;51.636;4.948;2023-06-22T02:14:08;2.75;;;1.55;;
59189;SDS011;50749;51.636;4.948;2023-06-22T02:16:33;3.28;;;1.30;;
59189;SDS011;50749;51.636;4.948;2023-06-22T02:19:01;3.15;;;1.45;;
59189;SDS011;50749;51.636;4.948;2023-06-22T02:21:31;3.85;;;1.42;;
59189;SDS011;50749;51.636;4.948;2023-06-22T02:23:58;2.55;;;1.70;;
59189;SDS011;50749;51.636;4.948;2023-06-22T02:26:24;2.45;;;1.52;;
59189;SDS011;50749;51.636;4.948;2023-06-22T02:28:52;2.60;;;1.58;;
59189;SDS011;50749;51.636;4.948;2023-06-22T02:31:18;2.70;;;1.52;;
59189;SDS011;50749;51.636;4.948;2023-06-22T02:33:44;2.42;;;1.30;;
59189;SDS011;50749;51.636;4.948;2023-06-22T02:36:10;2.47;;;1.63;;
59189;SDS011;50749;51.636;4.948;2023-06-22T02:38:40;2.22;;;1.60;;
59189;SDS011;50749;51.636;4.948;2023-06-22T02:41:16;2.22;;;1.33;;
59189;SDS011;50749;51.636;4.948;2023-06-22T02:43:45;1.85;;;1.20;;
59189;SDS011;50749;51.636;4.948;2023-06-22T02:46:11;2.72;;;1.33;;
59189;SDS011;50749;51.636;4.948;2023-06-22T02:48:39;1.98;;;1.30;;
59189;SDS011;50749;51.636;4.948;2023-06-22T02:51:05;1.90;;;1.40;;
59189;SDS011;50749;51.636;4.948;2023-06-22T02:53:32;3.55;;;1.67;;
59189;SDS011;50749;51.636;4.948;2023-06-22T02:55:58;3.83;;;1.73;;
59189;SDS011;50749;51.636;4.948;2023-06-22T02:58:26;4.13;;;1.63;;
59189;SDS011;50749;51.636;4.948;2023-06-22T03:00:52;2.38;;;1.60;;
59189;SDS011;50749;51.636;4.948;2023-06-22T03:03:18;2.67;;;1.80;;
59189;SDS011;50749;51.636;4.948;2023-06-22T03:05:45;2.40;;;1.52;;
59189;SDS011;50749;51.636;4.948;2023-06-22T03:08:11;2.97;;;1.70;;
59189;SDS011;50749;51.636;4.948;2023-06-22T03:10:36;2.65;;;1.67;;
59189;SDS011;50749;51.636;4.948;2023-06-22T03:13:02;3.40;;;1.67;;
59189;SDS011;50749;51.636;4.948;2023-06-22T03:15:28;2.55;;;1.40;;
59189;SDS011;50749;51.636;4.948;2023-06-22T03:17:58;2.40;;;1.45;;
59189;SDS011;50749;51.636;4.948;2023-06-22T03:20:24;2.20;;;1.60;;
59189;SDS011;50749;51.636;4.948;2023-06-22T03:22:52;2.85;;;1.58;;
59189;SDS011;50749;51.636;4.948;2023-06-22T03:25:18;2.10;;;1.30;;
59189;SDS011;50749;51.636;4.948;2023-06-22T03:27:44;2.83;;;1.50;;
59189;SDS011;50749;51.636;4.948;2023-06-22T03:30:10;3.10;;;1.70;;
59189;SDS011;50749;51.636;4.948;2023-06-22T03:32:37;4.18;;;2.08;;
59189;SDS011;50749;51.636;4.948;2023-06-22T03:35:02;1.70;;;1.30;;
59189;SDS011;50749;51.636;4.948;2023-06-22T03:37:29;5.20;;;1.75;;
59189;SDS011;50749;51.636;4.948;2023-06-22T03:39:55;2.78;;;1.52;;
59189;SDS011;50749;51.636;4.948;2023-06-22T03:42:21;2.13;;;1.55;;
59189;SDS011;50749;51.636;4.948;2023-06-22T03:44:47;2.40;;;1.45;;
59189;SDS011;50749;51.636;4.948;2023-06-22T03:47:13;2.65;;;1.75;;
59189;SDS011;50749;51.636;4.948;2023-06-22T03:49:39;2.15;;;1.20;;
59189;SDS011;50749;51.636;4.948;2023-06-22T03:52:05;2.15;;;1.40;;
59189;SDS011;50749;51.636;4.948;2023-06-22T03:54:31;2.70;;;1.60;;
59189;SDS011;50749;51.636;4.948;2023-06-22T03:56:57;2.53;;;1.80;;
59189;SDS011;50749;51.636;4.948;2023-06-22T03:59:23;2.83;;;1.85;;
59189;SDS011;50749;51.636;4.948;2023-06-22T04:01:50;4.13;;;1.80;;
59189;SDS011;50749;51.636;4.948;2023-06-22T04:04:17;3.53;;;1.77;;
59189;SDS011;50749;51.636;4.948;2023-06-22T04:06:43;3.75;;;2.05;;
59189;SDS011;50749;51.636;4.948;2023-06-22T04:09:09;5.78;;;2.33;;
59189;SDS011;50749;51.636;4.948;2023-06-22T04:11:35;2.72;;;1.70;;
59189;SDS011;50749;51.636;4.948;2023-06-22T04:14:01;2.72;;;1.88;;
59189;SDS011;50749;51.636;4.948;2023-06-22T04:16:27;3.35;;;2.13;;
59189;SDS011;50749;51.636;4.948;2023-06-22T04:18:52;3.05;;;1.95;;
59189;SDS011;50749;51.636;4.948;2023-06-22T04:21:19;3.40;;;2.20;;
59189;SDS011;50749;51.636;4.948;2023-06-22T04:23:45;3.10;;;1.77;;
59189;SDS011;50749;51.636;4.948;2023-06-22T04:26:11;2.95;;;1.92;;
59189;SDS011;50749;51.636;4.948;2023-06-22T04:28:38;2.72;;;1.95;;
59189;SDS011;50749;51.636;4.948;2023-06-22T04:31:05;2.72;;;1.98;;
59189;SDS011;50749;51.636;4.948;2023-06-22T04:33:30;2.83;;;2.00;;
59189;SDS011;50749;51.636;4.948;2023-06-22T04:35:57;3.85;;;2.05;;
59189;SDS011;50749;51.636;4.948;2023-06-22T04:38:23;4.38;;;2.83;;
59189;SDS011;50749;51.636;4.948;2023-06-22T04:40:50;5.50;;;2.90;;
59189;SDS011;50749;51.636;4.948;2023-06-22T04:43:16;4.07;;;2.80;;
59189;SDS011;50749;51.636;4.948;2023-06-22T04:45:42;7.28;;;3.13;;
59189;SDS011;50749;51.636;4.948;2023-06-22T04:48:07;8.10;;;5.07;;
59189;SDS011;50749;51.636;4.948;2023-06-22T04:50:38;6.57;;;5.55;;
59189;SDS011;50749;51.636;4.948;2023-06-22T04:53:04;8.25;;;5.28;;
59189;SDS011;50749;51.636;4.948;2023-06-22T04:55:31;7.38;;;5.70;;
59189;SDS011;50749;51.636;4.948;2023-06-22T04:57:57;11.25;;;6.45;;
59189;SDS011;50749;51.636;4.948;2023-06-22T05:00:30;7.63;;;4.35;;
59189;SDS011;50749;51.636;4.948;2023-06-22T05:02:56;11.05;;;6.07;;
59189;SDS011;50749;51.636;4.948;2023-06-22T05:05:25;7.63;;;5.32;;
59189;SDS011;50749;51.636;4.948;2023-06-22T05:07:51;7.75;;;4.82;;
59189;SDS011;50749;51.636;4.948;2023-06-22T05:10:18;9.48;;;4.70;;
59189;SDS011;50749;51.636;4.948;2023-06-22T05:12:45;5.82;;;3.75;;
59189;SDS011;50749;51.636;4.948;2023-06-22T05:15:11;5.53;;;4.03;;
59189;SDS011;50749;51.636;4.948;2023-06-22T05:17:37;11.00;;;4.93;;
59189;SDS011;50749;51.636;4.948;2023-06-22T05:20:09;8.43;;;4.57;;
59189;SDS011;50749;51.636;4.948;2023-06-22T05:22:35;6.72;;;4.18;;
59189;SDS011;50749;51.636;4.948;2023-06-22T05:25:01;5.97;;;4.50;;
59189;SDS011;50749;51.636;4.948;2023-06-22T05:27:27;5.68;;;3.72;;
59189;SDS011;50749;51.636;4.948;2023-06-22T05:29:53;8.02;;;4.63;;
59189;SDS011;50749;51.636;4.948;2023-06-22T05:32:18;6.65;;;4.90;;
59189;SDS011;50749;51.636;4.948;2023-06-22T05:34:45;5.85;;;3.97;;
59189;SDS011;50749;51.636;4.948;2023-06-22T05:37:10;6.18;;;4.35;;
59189;SDS011;50749;51.636;4.948;2023-06-22T05:39:38;7.82;;;4.70;;
59189;SDS011;50749;51.636;4.948;2023-06-22T05:42:07;6.13;;;4.65;;
59189;SDS011;50749;51.636;4.948;2023-06-22T05:44:33;5.43;;;3.95;;
59189;SDS011;50749;51.636;4.948;2023-06-22T05:46:59;7.18;;;4.07;;
59189;SDS011;50749;51.636;4.948;2023-06-22T05:49:25;4.63;;;3.65;;
59189;SDS011;50749;51.636;4.948;2023-06-22T05:51:55;9.32;;;4.10;;
59189;SDS011;50749;51.636;4.948;2023-06-22T05:54:22;5.32;;;3.83;;
59189;SDS011;50749;51.636;4.948;2023-06-22T05:56:47;6.13;;;3.78;;
59189;SDS011;50749;51.636;4.948;2023-06-22T05:59:13;6.35;;;3.72;;
59189;SDS011;50749;51.636;4.948;2023-06-22T06:01:39;6.18;;;3.97;;
59189;SDS011;50749;51.636;4.948;2023-06-22T06:04:05;3.08;;;2.42;;
59189;SDS011;50749;51.636;4.948;2023-06-22T06:06:34;3.33;;;2.35;;
59189;SDS011;50749;51.636;4.948;2023-06-22T06:09:03;6.07;;;2.20;;
59189;SDS011;50749;51.636;4.948;2023-06-22T06:11:29;3.70;;;2.70;;
59189;SDS011;50749;51.636;4.948;2023-06-22T06:13:55;4.65;;;2.38;;
59189;SDS011;50749;51.636;4.948;2023-06-22T06:16:21;4.85;;;2.20;;
59189;SDS011;50749;51.636;4.948;2023-06-22T06:18:47;4.20;;;2.33;;
59189;SDS011;50749;51.636;4.948;2023-06-22T06:21:15;3.90;;;2.42;;
59189;SDS011;50749;51.636;4.948;2023-06-22T06:23:42;3.85;;;2.72;;
59189;SDS011;50749;51.636;4.948;2023-06-22T06:26:07;4.05;;;2.67;;
59189;SDS011;50749;51.636;4.948;2023-06-22T06:28:34;3.85;;;2.35;;
59189;SDS011;50749;51.636;4.948;2023-06-22T06:31:00;3.08;;;2.25;;
59189;SDS011;50749;51.636;4.948;2023-06-22T06:33:26;3.25;;;2.40;;
59189;SDS011;50749;51.636;4.948;2023-06-22T06:35:52;5.40;;;2.30;;
59189;SDS011;50749;51.636;4.948;2023-06-22T06:38:18;3.10;;;2.25;;
59189;SDS011;50749;51.636;4.948;2023-06-22T06:40:44;3.28;;;2.30;;
59189;SDS011;50749;51.636;4.948;2023-06-22T06:43:10;2.70;;;1.88;;
59189;SDS011;50749;51.636;4.948;2023-06-22T06:45:36;4.45;;;1.92;;
59189;SDS011;50749;51.636;4.948;2023-06-22T06:48:02;3.00;;;2.30;;
59189;SDS011;50749;51.636;4.948;2023-06-22T06:50:28;3.35;;;2.17;;
59189;SDS011;50749;51.636;4.948;2023-06-22T06:52:56;5.40;;;2.20;;
59189;SDS011;50749;51.636;4.948;2023-06-22T06:55:24;3.13;;;2.00;;
59189;SDS011;50749;51.636;4.948;2023-06-22T06:57:51;5.32;;;2.00;;
59189;SDS011;50749;51.636;4.948;2023-06-22T07:00:18;3.05;;;2.15;;
59189;SDS011;50749;51.636;4.948;2023-06-22T07:02:44;4.10;;;1.90;;
59189;SDS011;50749;51.636;4.948;2023-06-22T07:05:11;4.57;;;2.03;;
59189;SDS011;50749;51.636;4.948;2023-06-22T07:07:38;3.13;;;1.90;;
59189;SDS011;50749;51.636;4.948;2023-06-22T07:10:04;3.30;;;1.90;;
59189;SDS011;50749;51.636;4.948;2023-06-22T07:12:31;4.53;;;2.00;;
59189;SDS011;50749;51.636;4.948;2023-06-22T07:15:03;3.00;;;1.88;;
59189;SDS011;50749;51.636;4.948;2023-06-22T07:17:34;4.43;;;1.95;;
59189;SDS011;50749;51.636;4.948;2023-06-22T07:20:00;3.78;;;2.30;;
59189;SDS011;50749;51.636;4.948;2023-06-22T07:22:27;4.60;;;2.10;;
59189;SDS011;50749;51.636;4.948;2023-06-22T07:24:53;3.03;;;1.90;;
59189;SDS011;50749;51.636;4.948;2023-06-22T07:27:20;2.78;;;1.90;;
59189;SDS011;50749;51.636;4.948;2023-06-22T07:29:46;4.38;;;2.03;;
59189;SDS011;50749;51.636;4.948;2023-06-22T07:32:12;2.50;;;1.95;;
59189;SDS011;50749;51.636;4.948;2023-06-22T07:34:38;4.47;;;1.73;;
59189;SDS011;50749;51.636;4.948;2023-06-22T07:37:04;2.95;;;1.90;;
59189;SDS011;50749;51.636;4.948;2023-06-22T07:39:30;3.95;;;1.83;;
59189;SDS011;50749;51.636;4.948;2023-06-22T07:41:56;2.50;;;1.73;;
59189;SDS011;50749;51.636;4.948;2023-06-22T07:44:21;3.13;;;1.90;;
59189;SDS011;50749;51.636;4.948;2023-06-22T07:46:47;3.75;;;2.10;;
59189;SDS011;50749;51.636;4.948;2023-06-22T07:49:13;3.22;;;2.00;;
59189;SDS011;50749;51.636;4.948;2023-06-22T07:51:39;3.72;;;2.08;;
59189;SDS011;50749;51.636;4.948;2023-06-22T07:54:07;4.22;;;2.92;;
59189;SDS011;50749;51.636;4.948;2023-06-22T07:56:34;5.70;;;3.60;;
59189;SDS011;50749;51.636;4.948;2023-06-22T07:59:00;4.95;;;3.72;;
59189;SDS011;50749;51.636;4.948;2023-06-22T08:01:27;8.02;;;4.45;;
59189;SDS011;50749;51.636;4.948;2023-06-22T08:03:53;7.13;;;4.22;;
59189;SDS011;50749;51.636;4.948;2023-06-22T08:06:19;6.13;;;4.60;;
59189;SDS011;50749;51.636;4.948;2023-06-22T08:08:44;7.55;;;4.95;;
59189;SDS011;50749;51.636;4.948;2023-06-22T08:11:13;9.05;;;4.57;;
59189;SDS011;50749;51.636;4.948;2023-06-22T08:13:39;6.40;;;4.53;;
59189;SDS011;50749;51.636;4.948;2023-06-22T08:16:05;6.82;;;4.93;;
59189;SDS011;50749;51.636;4.948;2023-06-22T08:18:32;8.00;;;4.82;;
59189;SDS011;50749;51.636;4.948;2023-06-22T08:20:58;5.97;;;4.07;;
59189;SDS011;50749;51.636;4.948;2023-06-22T08:23:24;9.02;;;4.35;;
59189;SDS011;50749;51.636;4.948;2023-06-22T08:25:50;6.22;;;3.20;;
59189;SDS011;50749;51.636;4.948;2023-06-22T08:28:15;6.28;;;2.88;;
59189;SDS011;50749;51.636;4.948;2023-06-22T08:30:41;3.65;;;2.15;;
59189;SDS011;50749;51.636;4.948;2023-06-22T08:33:07;4.00;;;2.10;;
59189;SDS011;50749;51.636;4.948;2023-06-22T08:35:33;3.70;;;1.88;;
59189;SDS011;50749;51.636;4.948;2023-06-22T08:37:59;4.18;;;1.83;;
59189;SDS011;50749;51.636;4.948;2023-06-22T08:40:25;5.93;;;1.58;;
59189;SDS011;50749;51.636;4.948;2023-06-22T08:42:51;3.33;;;1.77;;
59189;SDS011;50749;51.636;4.948;2023-06-22T08:45:17;3.75;;;1.50;;
59189;SDS011;50749;51.636;4.948;2023-06-22T08:47:43;3.83;;;1.90;;
59189;SDS011;50749;51.636;4.948;2023-06-22T08:50:09;5.15;;;1.98;;
59189;SDS011;50749;51.636;4.948;2023-06-22T08:52:35;3.58;;;1.85;;
59189;SDS011;50749;51.636;4.948;2023-06-22T08:55:02;3.70;;;1.80;;
59189;SDS011;50749;51.636;4.948;2023-06-22T08:57:28;2.97;;;1.73;;
59189;SDS011;50749;51.636;4.948;2023-06-22T08:59:54;3.00;;;1.65;;
59189;SDS011;50749;51.636;4.948;2023-06-22T09:02:23;2.63;;;1.40;;
59189;SDS011;50749;51.636;4.948;2023-06-22T09:04:49;2.47;;;1.52;;
59189;SDS011;50749;51.636;4.948;2023-06-22T09:07:21;4.90;;;1.77;;
59189;SDS011;50749;51.636;4.948;2023-06-22T09:09:48;3.22;;;2.03;;
59189;SDS011;50749;51.636;4.948;2023-06-22T09:12:16;2.33;;;1.63;;
59189;SDS011;50749;51.636;4.948;2023-06-22T09:14:42;3.10;;;1.80;;
59189;SDS011;50749;51.636;4.948;2023-06-22T09:17:08;2.80;;;1.90;;
59189;SDS011;50749;51.636;4.948;2023-06-22T09:19:33;2.67;;;1.85;;
59189;SDS011;50749;51.636;4.948;2023-06-22T09:22:00;2.72;;;1.90;;
59189;SDS011;50749;51.636;4.948;2023-06-22T09:24:26;3.67;;;2.42;;
59189;SDS011;50749;51.636;4.948;2023-06-22T09:26:51;4.32;;;2.10;;
59189;SDS011;50749;51.636;4.948;2023-06-22T09:29:17;4.45;;;2.45;;
59189;SDS011;50749;51.636;4.948;2023-06-22T09:31:43;2.65;;;1.90;;
59189;SDS011;50749;51.636;4.948;2023-06-22T09:34:09;1.95;;;1.50;;
59189;SDS011;50749;51.636;4.948;2023-06-22T09:36:35;2.30;;;1.58;;
59189;SDS011;50749;51.636;4.948;2023-06-22T09:39:02;2.50;;;1.60;;
59189;SDS011;50749;51.636;4.948;2023-06-22T09:41:31;3.50;;;1.80;;
59189;SDS011;50749;51.636;4.948;2023-06-22T09:43:57;2.97;;;1.80;;
59189;SDS011;50749;51.636;4.948;2023-06-22T09:46:23;3.08;;;1.90;;
59189;SDS011;50749;51.636;4.948;2023-06-22T09:48:51;2.30;;;1.60;;
59189;SDS011;50749;51.636;4.948;2023-06-22T09:51:17;2.78;;;2.13;;
59189;SDS011;50749;51.636;4.948;2023-06-22T09:53:44;2.15;;;1.70;;
59189;SDS011;50749;51.636;4.948;2023-06-22T09:56:10;4.20;;;1.83;;
59189;SDS011;50749;51.636;4.948;2023-06-22T09:58:43;2.45;;;1.98;;
59189;SDS011;50749;51.636;4.948;2023-06-22T10:01:09;4.32;;;1.90;;
59189;SDS011;50749;51.636;4.948;2023-06-22T10:03:36;2.92;;;2.13;;
59189;SDS011;50749;51.636;4.948;2023-06-22T10:06:02;2.22;;;1.77;;
59189;SDS011;50749;51.636;4.948;2023-06-22T10:08:28;4.85;;;1.95;;
59189;SDS011;50749;51.636;4.948;2023-06-22T10:10:54;5.07;;;2.10;;
59189;SDS011;50749;51.636;4.948;2023-06-22T10:13:20;3.38;;;1.90;;
59189;SDS011;50749;51.636;4.948;2023-06-22T10:15:46;2.90;;;1.80;;
59189;SDS011;50749;51.636;4.948;2023-06-22T10:18:17;4.07;;;2.00;;
59189;SDS011;50749;51.636;4.948;2023-06-22T10:20:43;4.18;;;2.03;;
59189;SDS011;50749;51.636;4.948;2023-06-22T10:23:09;3.28;;;1.90;;
59189;SDS011;50749;51.636;4.948;2023-06-22T10:25:34;2.70;;;2.17;;
59189;SDS011;50749;51.636;4.948;2023-06-22T10:28:00;2.70;;;1.90;;
59189;SDS011;50749;51.636;4.948;2023-06-22T10:30:26;2.80;;;1.60;;
59189;SDS011;50749;51.636;4.948;2023-06-22T10:32:52;3.78;;;2.03;;
59189;SDS011;50749;51.636;4.948;2023-06-22T10:35:17;3.45;;;1.95;;
59189;SDS011;50749;51.636;4.948;2023-06-22T10:37:44;3.47;;;2.00;;
59189;SDS011;50749;51.636;4.948;2023-06-22T10:40:11;2.83;;;1.90;;
59189;SDS011;50749;51.636;4.948;2023-06-22T10:42:41;2.92;;;1.92;;
59189;SDS011;50749;51.636;4.948;2023-06-22T10:45:07;2.80;;;2.00;;
59189;SDS011;50749;51.636;4.948;2023-06-22T10:47:34;2.92;;;1.80;;
59189;SDS011;50749;51.636;4.948;2023-06-22T10:50:01;2.30;;;1.48;;
59189;SDS011;50749;51.636;4.948;2023-06-22T10:52:27;2.67;;;1.85;;
59189;SDS011;50749;51.636;4.948;2023-06-22T10:54:53;2.30;;;1.85;;
59189;SDS011;50749;51.636;4.948;2023-06-22T10:57:19;4.72;;;1.90;;
59189;SDS011;50749;51.636;4.948;2023-06-22T10:59:44;2.60;;;1.75;;
59189;SDS011;50749;51.636;4.948;2023-06-22T11:02:10;4.28;;;2.00;;
59189;SDS011;50749;51.636;4.948;2023-06-22T11:04:36;2.67;;;1.75;;
59189;SDS011;50749;51.636;4.948;2023-06-22T11:07:02;3.35;;;2.08;;
59189;SDS011;50749;51.636;4.948;2023-06-22T11:09:27;2.65;;;1.90;;
59189;SDS011;50749;51.636;4.948;2023-06-22T11:11:53;2.80;;;1.75;;
59189;SDS011;50749;51.636;4.948;2023-06-22T11:14:19;3.30;;;1.98;;
59189;SDS011;50749;51.636;4.948;2023-06-22T11:16:45;3.10;;;1.95;;
59189;SDS011;50749;51.636;4.948;2023-06-22T11:19:11;3.88;;;1.90;;
59189;SDS011;50749;51.636;4.948;2023-06-22T11:21:38;2.92;;;2.08;;
59189;SDS011;50749;51.636;4.948;2023-06-22T11:24:03;3.10;;;2.10;;
59189;SDS011;50749;51.636;4.948;2023-06-22T11:26:30;3.35;;;2.10;;
59189;SDS011;50749;51.636;4.948;2023-06-22T11:28:57;2.45;;;1.73;;
59189;SDS011;50749;51.636;4.948;2023-06-22T11:31:23;3.03;;;2.05;;
59189;SDS011;50749;51.636;4.948;2023-06-22T11:33:49;2.78;;;1.98;;
59189;SDS011;50749;51.636;4.948;2023-06-22T11:36:16;3.20;;;2.15;;
59189;SDS011;50749;51.636;4.948;2023-06-22T11:38:42;2.88;;;1.80;;
59189;SDS011;50749;51.636;4.948;2023-06-22T11:41:08;2.78;;;2.00;;
59189;SDS011;50749;51.636;4.948;2023-06-22T11:43:35;2.70;;;2.08;;
59189;SDS011;50749;51.636;4.948;2023-06-22T11:46:03;2.78;;;2.05;;
59189;SDS011;50749;51.636;4.948;2023-06-22T11:48:29;3.63;;;2.20;;
59189;SDS011;50749;51.636;4.948;2023-06-22T11:50:56;3.55;;;2.15;;
59189;SDS011;50749;51.636;4.948;2023-06-22T11:53:23;2.55;;;2.05;;
59189;SDS011;50749;51.636;4.948;2023-06-22T11:55:50;4.20;;;3.20;;
59189;SDS011;50749;51.636;4.948;2023-06-22T11:58:16;4.20;;;2.58;;
59189;SDS011;50749;51.636;4.948;2023-06-22T12:00:42;5.05;;;3.30;;
59189;SDS011;50749;51.636;4.948;2023-06-22T12:03:08;8.85;;;3.92;;
59189;SDS011;50749;51.636;4.948;2023-06-22T12:05:35;7.00;;;4.28;;
59189;SDS011;50749;51.636;4.948;2023-06-22T12:08:00;5.38;;;3.28;;
59189;SDS011;50749;51.636;4.948;2023-06-22T12:10:26;5.50;;;4.00;;
59189;SDS011;50749;51.636;4.948;2023-06-22T12:12:55;3.97;;;2.63;;
59189;SDS011;50749;51.636;4.948;2023-06-22T12:15:23;5.70;;;3.50;;
59189;SDS011;50749;51.636;4.948;2023-06-22T12:17:48;5.68;;;2.60;;
59189;SDS011;50749;51.636;4.948;2023-06-22T12:20:15;3.53;;;2.38;;
59189;SDS011;50749;51.636;4.948;2023-06-22T12:22:41;4.35;;;2.72;;
59189;SDS011;50749;51.636;4.948;2023-06-22T12:25:07;5.97;;;2.30;;
59189;SDS011;50749;51.636;4.948;2023-06-22T12:27:34;8.55;;;2.40;;
59189;SDS011;50749;51.636;4.948;2023-06-22T12:30:00;2.58;;;1.90;;
59189;SDS011;50749;51.636;4.948;2023-06-22T12:32:26;3.53;;;2.20;;
59189;SDS011;50749;51.636;4.948;2023-06-22T12:34:52;3.17;;;2.08;;
59189;SDS011;50749;51.636;4.948;2023-06-22T12:37:18;3.92;;;2.00;;
59189;SDS011;50749;51.636;4.948;2023-06-22T12:39:43;4.05;;;2.25;;
59189;SDS011;50749;51.636;4.948;2023-06-22T12:42:10;5.50;;;2.03;;
59189;SDS011;50749;51.636;4.948;2023-06-22T12:44:37;2.47;;;1.85;;
59189;SDS011;50749;51.636;4.948;2023-06-22T12:47:04;2.70;;;1.85;;
59189;SDS011;50749;51.636;4.948;2023-06-22T12:49:31;6.75;;;3.97;;
59189;SDS011;50749;51.636;4.948;2023-06-22T12:51:56;7.53;;;2.90;;
59189;SDS011;50749;51.636;4.948;2023-06-22T12:54:22;5.50;;;3.03;;
59189;SDS011;50749;51.636;4.948;2023-06-22T12:56:49;7.95;;;3.90;;
59189;SDS011;50749;51.636;4.948;2023-06-22T12:59:16;5.88;;;4.30;;
59189;SDS011;50749;51.636;4.948;2023-06-22T13:01:42;9.20;;;4.65;;
59189;SDS011;50749;51.636;4.948;2023-06-22T13:04:09;5.45;;;3.17;;
59189;SDS011;50749;51.636;4.948;2023-06-22T13:06:36;6.47;;;4.78;;
59189;SDS011;50749;51.636;4.948;2023-06-22T13:09:02;9.45;;;6.70;;
59189;SDS011;50749;51.636;4.948;2023-06-22T13:11:30;9.65;;;6.63;;
59189;SDS011;50749;51.636;4.948;2023-06-22T13:13:56;10.82;;;7.70;;
59189;SDS011;50749;51.636;4.948;2023-06-22T13:16:22;10.07;;;7.97;;
59189;SDS011;50749;51.636;4.948;2023-06-22T13:18:48;10.07;;;7.40;;
59189;SDS011;50749;51.636;4.948;2023-06-22T13:21:13;13.07;;;7.68;;
59189;SDS011;50749;51.636;4.948;2023-06-22T13:23:40;11.68;;;7.25;;
59189;SDS011;50749;51.636;4.948;2023-06-22T13:26:05;11.23;;;7.53;;
59189;SDS011;50749;51.636;4.948;2023-06-22T13:28:32;10.57;;;7.65;;
59189;SDS011;50749;51.636;4.948;2023-06-22T13:30:58;9.90;;;7.55;;
59189;SDS011;50749;51.636;4.948;2023-06-22T13:33:24;9.23;;;7.20;;
59189;SDS011;50749;51.636;4.948;2023-06-22T13:35:49;10.27;;;7.43;;
59189;SDS011;50749;51.636;4.948;2023-06-22T13:38:15;10.98;;;6.97;;
59189;SDS011;50749;51.636;4.948;2023-06-22T13:40:42;10.65;;;7.45;;
59189;SDS011;50749;51.636;4.948;2023-06-22T13:43:08;14.25;;;7.40;;
59189;SDS011;50749;51.636;4.948;2023-06-22T13:45:34;10.43;;;7.95;;
59189;SDS011;50749;51.636;4.948;2023-06-22T13:48:00;9.80;;;7.50;;
59189;SDS011;50749;51.636;4.948;2023-06-22T13:50:26;11.82;;;7.85;;
59189;SDS011;50749;51.636;4.948;2023-06-22T13:52:52;11.60;;;7.43;;
59189;SDS011;50749;51.636;4.948;2023-06-22T13:55:18;12.52;;;7.82;;
59189;SDS011;50749;51.636;4.948;2023-06-22T13:57:46;10.60;;;7.80;;
59189;SDS011;50749;51.636;4.948;2023-06-22T14:00:12;10.40;;;8.27;;
59189;SDS011;50749;51.636;4.948;2023-06-22T14:02:39;10.63;;;8.00;;
59189;SDS011;50749;51.636;4.948;2023-06-22T14:05:06;11.60;;;9.45;;
59189;SDS011;50749;51.636;4.948;2023-06-22T14:07:32;9.80;;;8.38;;
59189;SDS011;50749;51.636;4.948;2023-06-22T14:09:58;11.35;;;8.40;;
59189;SDS011;50749;51.636;4.948;2023-06-22T14:12:24;12.68;;;8.52;;
59189;SDS011;50749;51.636;4.948;2023-06-22T14:14:49;12.02;;;9.52;;
59189;SDS011;50749;51.636;4.948;2023-06-22T14:17:15;11.23;;;8.00;;
59189;SDS011;50749;51.636;4.948;2023-06-22T14:19:41;13.57;;;9.02;;
59189;SDS011;50749;51.636;4.948;2023-06-22T14:22:07;12.77;;;8.52;;
59189;SDS011;50749;51.636;4.948;2023-06-22T14:24:32;9.77;;;7.18;;
59189;SDS011;50749;51.636;4.948;2023-06-22T14:26:58;10.20;;;7.80;;
59189;SDS011;50749;51.636;4.948;2023-06-22T14:29:25;10.73;;;8.52;;
59189;SDS011;50749;51.636;4.948;2023-06-22T14:31:51;8.82;;;7.32;;
59189;SDS011;50749;51.636;4.948;2023-06-22T14:34:16;10.68;;;8.15;;
59189;SDS011;50749;51.636;4.948;2023-06-22T14:36:42;9.82;;;8.20;;
59189;SDS011;50749;51.636;4.948;2023-06-22T14:39:08;9.57;;;7.50;;
59189;SDS011;50749;51.636;4.948;2023-06-22T14:41:35;8.88;;;7.75;;
59189;SDS011;50749;51.636;4.948;2023-06-22T14:44:00;10.43;;;7.95;;
59189;SDS011;50749;51.636;4.948;2023-06-22T14:46:26;13.30;;;8.18;;
59189;SDS011;50749;51.636;4.948;2023-06-22T14:48:52;10.43;;;8.15;;